sensor_id;sensor_type;location;lat;lon;timestamp;P1;durP1;ratioP1;P2;durP2;ratioP2
16839;SDS011;8536;52.150;11.572;2023-02-26T00:01:17;5.17;;;1.13;;
16839;SDS011;8536;52.150;11.572;2023-02-26T00:03:47;1.63;;;0.83;;
16839;SDS011;8536;52.150;11.572;2023-02-26T00:06:18;3.90;;;1.27;;
16839;SDS011;8536;52.150;11.572;2023-02-26T00:08:44;2.97;;;1.07;;
16839;SDS011;8536;52.150;11.572;2023-02-26T00:11:11;3.73;;;0.97;;
16839;SDS011;8536;52.150;11.572;2023-02-26T00:13:38;4.20;;;1.20;;
16839;SDS011;8536;52.150;11.572;2023-02-26T00:16:16;2.37;;;0.83;;
16839;SDS011;8536;52.150;11.572;2023-02-26T00:18:46;3.07;;;1.20;;
16839;SDS011;8536;52.150;11.572;2023-02-26T00:21:17;4.87;;;1.10;;
16839;SDS011;8536;52.150;11.572;2023-02-26T00:23:45;2.63;;;1.10;;
16839;SDS011;8536;52.150;11.572;2023-02-26T00:26:11;2.60;;;1.20;;
16839;SDS011;8536;52.150;11.572;2023-02-26T00:28:38;5.07;;;1.10;;
16839;SDS011;8536;52.150;11.572;2023-02-26T00:31:05;4.03;;;1.10;;
16839;SDS011;8536;52.150;11.572;2023-02-26T00:33:32;4.13;;;1.40;;
16839;SDS011;8536;52.150;11.572;2023-02-26T00:36:12;5.57;;;1.37;;
16839;SDS011;8536;52.150;11.572;2023-02-26T00:38:46;2.37;;;1.10;;
16839;SDS011;8536;52.150;11.572;2023-02-26T00:41:27;3.10;;;1.07;;
16839;SDS011;8536;52.150;11.572;2023-02-26T00:43:54;4.53;;;1.13;;
16839;SDS011;8536;52.150;11.572;2023-02-26T00:51:47;1.23;;;0.77;;
16839;SDS011;8536;52.150;11.572;2023-02-26T00:54:19;3.90;;;1.03;;
16839;SDS011;8536;52.150;11.572;2023-02-26T00:56:48;3.93;;;0.97;;
16839;SDS011;8536;52.150;11.572;2023-02-26T00:59:15;2.67;;;0.80;;
16839;SDS011;8536;52.150;11.572;2023-02-26T01:01:43;2.40;;;0.70;;
16839;SDS011;8536;52.150;11.572;2023-02-26T01:04:10;5.13;;;0.90;;
16839;SDS011;8536;52.150;11.572;2023-02-26T01:06:41;3.60;;;1.07;;
16839;SDS011;8536;52.150;11.572;2023-02-26T01:09:29;1.00;;;0.80;;
16839;SDS011;8536;52.150;11.572;2023-02-26T01:12:00;1.93;;;0.60;;
16839;SDS011;8536;52.150;11.572;2023-02-26T01:14:38;1.17;;;0.83;;
16839;SDS011;8536;52.150;11.572;2023-02-26T01:17:07;1.33;;;1.00;;
16839;SDS011;8536;52.150;11.572;2023-02-26T01:20:00;2.43;;;0.80;;
16839;SDS011;8536;52.150;11.572;2023-02-26T01:22:39;2.13;;;0.77;;
16839;SDS011;8536;52.150;11.572;2023-02-26T01:25:13;2.63;;;1.10;;
16839;SDS011;8536;52.150;11.572;2023-02-26T01:27:41;2.30;;;0.90;;
16839;SDS011;8536;52.150;11.572;2023-02-26T01:30:08;4.97;;;0.80;;
16839;SDS011;8536;52.150;11.572;2023-02-26T01:35:28;1.67;;;1.07;;
16839;SDS011;8536;52.150;11.572;2023-02-26T01:38:32;1.73;;;0.93;;
16839;SDS011;8536;52.150;11.572;2023-02-26T01:41:18;2.47;;;0.70;;
16839;SDS011;8536;52.150;11.572;2023-02-26T01:49:30;2.93;;;1.00;;
16839;SDS011;8536;52.150;11.572;2023-02-26T01:51:57;2.70;;;0.97;;
16839;SDS011;8536;52.150;11.572;2023-02-26T01:54:29;3.23;;;0.90;;
16839;SDS011;8536;52.150;11.572;2023-02-26T01:59:41;2.37;;;0.90;;
16839;SDS011;8536;52.150;11.572;2023-02-26T02:02:10;2.97;;;0.80;;
16839;SDS011;8536;52.150;11.572;2023-02-26T02:04:37;2.43;;;0.80;;
16839;SDS011;8536;52.150;11.572;2023-02-26T02:07:05;5.47;;;1.00;;
16839;SDS011;8536;52.150;11.572;2023-02-26T02:09:33;1.53;;;0.80;;
16839;SDS011;8536;52.150;11.572;2023-02-26T02:12:12;3.90;;;1.47;;
16839;SDS011;8536;52.150;11.572;2023-02-26T02:15:07;2.00;;;0.90;;
16839;SDS011;8536;52.150;11.572;2023-02-26T02:31:48;3.30;;;0.97;;
16839;SDS011;8536;52.150;11.572;2023-02-26T02:36:57;2.30;;;1.00;;
16839;SDS011;8536;52.150;11.572;2023-02-26T02:39:30;1.90;;;0.80;;
16839;SDS011;8536;52.150;11.572;2023-02-26T02:42:29;2.23;;;0.70;;
16839;SDS011;8536;52.150;11.572;2023-02-26T02:44:59;3.60;;;0.67;;
16839;SDS011;8536;52.150;11.572;2023-02-26T02:47:27;2.23;;;0.90;;
16839;SDS011;8536;52.150;11.572;2023-02-26T02:50:11;1.73;;;0.80;;
16839;SDS011;8536;52.150;11.572;2023-02-26T02:52:41;1.87;;;0.87;;
16839;SDS011;8536;52.150;11.572;2023-02-26T02:55:20;2.20;;;1.07;;
16839;SDS011;8536;52.150;11.572;2023-02-26T02:58:03;2.00;;;0.70;;
16839;SDS011;8536;52.150;11.572;2023-02-26T03:00:33;3.03;;;1.00;;
16839;SDS011;8536;52.150;11.572;2023-02-26T03:03:05;4.33;;;0.87;;
16839;SDS011;8536;52.150;11.572;2023-02-26T03:05:36;3.00;;;0.70;;
16839;SDS011;8536;52.150;11.572;2023-02-26T03:08:06;2.23;;;0.77;;
16839;SDS011;8536;52.150;11.572;2023-02-26T03:10:34;2.30;;;0.77;;
16839;SDS011;8536;52.150;11.572;2023-02-26T03:13:01;2.77;;;1.00;;
16839;SDS011;8536;52.150;11.572;2023-02-26T03:15:31;1.57;;;0.90;;
16839;SDS011;8536;52.150;11.572;2023-02-26T03:20:50;1.40;;;0.63;;
16839;SDS011;8536;52.150;11.572;2023-02-26T03:23:23;1.57;;;1.07;;
16839;SDS011;8536;52.150;11.572;2023-02-26T03:25:59;3.07;;;0.83;;
16839;SDS011;8536;52.150;11.572;2023-02-26T03:28:35;2.53;;;0.90;;
16839;SDS011;8536;52.150;11.572;2023-02-26T03:31:16;1.33;;;0.80;;
16839;SDS011;8536;52.150;11.572;2023-02-26T03:36:38;1.77;;;0.90;;
16839;SDS011;8536;52.150;11.572;2023-02-26T03:39:15;1.07;;;0.70;;
16839;SDS011;8536;52.150;11.572;2023-02-26T03:41:46;4.20;;;0.70;;
16839;SDS011;8536;52.150;11.572;2023-02-26T03:44:19;3.13;;;0.93;;
16839;SDS011;8536;52.150;11.572;2023-02-26T03:46:51;6.10;;;1.00;;
16839;SDS011;8536;52.150;11.572;2023-02-26T03:49:22;3.77;;;0.77;;
16839;SDS011;8536;52.150;11.572;2023-02-26T03:51:52;3.17;;;0.97;;
16839;SDS011;8536;52.150;11.572;2023-02-26T03:54:24;1.90;;;0.83;;
16839;SDS011;8536;52.150;11.572;2023-02-26T03:56:53;2.03;;;0.83;;
16839;SDS011;8536;52.150;11.572;2023-02-26T03:59:19;2.70;;;0.70;;
16839;SDS011;8536;52.150;11.572;2023-02-26T04:01:51;3.80;;;0.70;;
16839;SDS011;8536;52.150;11.572;2023-02-26T04:07:08;2.23;;;0.83;;
16839;SDS011;8536;52.150;11.572;2023-02-26T04:09:35;1.87;;;0.80;;
16839;SDS011;8536;52.150;11.572;2023-02-26T04:12:01;1.67;;;0.83;;
16839;SDS011;8536;52.150;11.572;2023-02-26T04:14:29;1.23;;;0.77;;
16839;SDS011;8536;52.150;11.572;2023-02-26T04:16:55;1.20;;;0.60;;
16839;SDS011;8536;52.150;11.572;2023-02-26T04:19:21;1.67;;;0.73;;
16839;SDS011;8536;52.150;11.572;2023-02-26T04:21:48;2.10;;;0.70;;
16839;SDS011;8536;52.150;11.572;2023-02-26T04:24:14;2.13;;;0.90;;
16839;SDS011;8536;52.150;11.572;2023-02-26T04:26:41;2.40;;;0.70;;
16839;SDS011;8536;52.150;11.572;2023-02-26T04:29:07;2.83;;;1.17;;
16839;SDS011;8536;52.150;11.572;2023-02-26T04:31:34;1.83;;;1.53;;
16839;SDS011;8536;52.150;11.572;2023-02-26T04:34:00;3.20;;;0.80;;
16839;SDS011;8536;52.150;11.572;2023-02-26T04:36:27;2.97;;;1.00;;
16839;SDS011;8536;52.150;11.572;2023-02-26T04:38:53;2.20;;;0.70;;
16839;SDS011;8536;52.150;11.572;2023-02-26T04:41:20;3.80;;;0.63;;
16839;SDS011;8536;52.150;11.572;2023-02-26T04:43:46;2.30;;;0.80;;
16839;SDS011;8536;52.150;11.572;2023-02-26T04:46:13;1.60;;;0.90;;
16839;SDS011;8536;52.150;11.572;2023-02-26T04:48:40;2.40;;;0.80;;
16839;SDS011;8536;52.150;11.572;2023-02-26T04:51:06;1.53;;;0.67;;
16839;SDS011;8536;52.150;11.572;2023-02-26T04:53:33;1.63;;;0.70;;
16839;SDS011;8536;52.150;11.572;2023-02-26T04:55:59;3.00;;;0.90;;
16839;SDS011;8536;52.150;11.572;2023-02-26T04:58:26;1.20;;;0.80;;
16839;SDS011;8536;52.150;11.572;2023-02-26T05:00:52;1.73;;;0.80;;
16839;SDS011;8536;52.150;11.572;2023-02-26T05:03:20;3.40;;;0.90;;
16839;SDS011;8536;52.150;11.572;2023-02-26T05:05:47;2.67;;;0.57;;
16839;SDS011;8536;52.150;11.572;2023-02-26T05:08:14;1.00;;;0.50;;
16839;SDS011;8536;52.150;11.572;2023-02-26T05:10:41;1.93;;;0.60;;
16839;SDS011;8536;52.150;11.572;2023-02-26T05:13:07;2.70;;;0.70;;
16839;SDS011;8536;52.150;11.572;2023-02-26T05:15:34;2.13;;;0.80;;
16839;SDS011;8536;52.150;11.572;2023-02-26T05:18:00;2.00;;;1.10;;
16839;SDS011;8536;52.150;11.572;2023-02-26T05:20:26;0.73;;;0.53;;
16839;SDS011;8536;52.150;11.572;2023-02-26T05:22:53;2.90;;;0.70;;
16839;SDS011;8536;52.150;11.572;2023-02-26T05:25:19;2.77;;;1.00;;
16839;SDS011;8536;52.150;11.572;2023-02-26T05:27:46;1.03;;;0.57;;
16839;SDS011;8536;52.150;11.572;2023-02-26T05:30:13;0.80;;;0.60;;
16839;SDS011;8536;52.150;11.572;2023-02-26T05:32:40;2.80;;;0.70;;
16839;SDS011;8536;52.150;11.572;2023-02-26T05:35:07;1.17;;;0.70;;
16839;SDS011;8536;52.150;11.572;2023-02-26T05:37:35;0.93;;;0.60;;
16839;SDS011;8536;52.150;11.572;2023-02-26T05:40:02;2.73;;;0.60;;
16839;SDS011;8536;52.150;11.572;2023-02-26T05:42:30;1.97;;;0.77;;
16839;SDS011;8536;52.150;11.572;2023-02-26T05:44:56;1.60;;;0.70;;
16839;SDS011;8536;52.150;11.572;2023-02-26T05:47:23;2.27;;;1.03;;
16839;SDS011;8536;52.150;11.572;2023-02-26T05:49:49;2.57;;;0.60;;
16839;SDS011;8536;52.150;11.572;2023-02-26T05:52:15;1.53;;;0.40;;
16839;SDS011;8536;52.150;11.572;2023-02-26T05:54:42;0.97;;;0.70;;
16839;SDS011;8536;52.150;11.572;2023-02-26T05:57:08;3.13;;;0.70;;
16839;SDS011;8536;52.150;11.572;2023-02-26T05:59:35;1.97;;;0.53;;
16839;SDS011;8536;52.150;11.572;2023-02-26T06:02:03;2.53;;;0.60;;
16839;SDS011;8536;52.150;11.572;2023-02-26T06:04:30;4.07;;;0.90;;
16839;SDS011;8536;52.150;11.572;2023-02-26T06:06:56;2.53;;;0.60;;
16839;SDS011;8536;52.150;11.572;2023-02-26T06:09:22;2.53;;;0.70;;
16839;SDS011;8536;52.150;11.572;2023-02-26T06:11:49;0.87;;;0.67;;
16839;SDS011;8536;52.150;11.572;2023-02-26T06:14:15;2.70;;;0.63;;
16839;SDS011;8536;52.150;11.572;2023-02-26T06:16:42;1.43;;;0.50;;
16839;SDS011;8536;52.150;11.572;2023-02-26T06:19:08;2.33;;;0.50;;
16839;SDS011;8536;52.150;11.572;2023-02-26T06:21:35;1.20;;;0.70;;
16839;SDS011;8536;52.150;11.572;2023-02-26T06:24:01;2.80;;;0.70;;
16839;SDS011;8536;52.150;11.572;2023-02-26T06:26:28;1.20;;;0.70;;
16839;SDS011;8536;52.150;11.572;2023-02-26T06:28:54;3.27;;;1.00;;
16839;SDS011;8536;52.150;11.572;2023-02-26T06:31:21;5.83;;;0.77;;
16839;SDS011;8536;52.150;11.572;2023-02-26T06:33:48;1.77;;;0.53;;
16839;SDS011;8536;52.150;11.572;2023-02-26T06:36:14;1.53;;;0.63;;
16839;SDS011;8536;52.150;11.572;2023-02-26T06:38:40;1.90;;;0.80;;
16839;SDS011;8536;52.150;11.572;2023-02-26T06:41:07;2.80;;;1.07;;
16839;SDS011;8536;52.150;11.572;2023-02-26T06:43:34;1.63;;;0.63;;
16839;SDS011;8536;52.150;11.572;2023-02-26T06:46:00;2.97;;;0.87;;
16839;SDS011;8536;52.150;11.572;2023-02-26T06:48:27;1.77;;;0.97;;
16839;SDS011;8536;52.150;11.572;2023-02-26T06:50:53;2.87;;;1.50;;
16839;SDS011;8536;52.150;11.572;2023-02-26T06:53:19;3.43;;;1.67;;
16839;SDS011;8536;52.150;11.572;2023-02-26T06:55:46;1.90;;;0.90;;
16839;SDS011;8536;52.150;11.572;2023-02-26T06:58:16;3.60;;;1.00;;
16839;SDS011;8536;52.150;11.572;2023-02-26T07:00:43;4.03;;;1.00;;
16839;SDS011;8536;52.150;11.572;2023-02-26T07:03:13;1.93;;;1.00;;
16839;SDS011;8536;52.150;11.572;2023-02-26T07:05:41;1.93;;;0.97;;
16839;SDS011;8536;52.150;11.572;2023-02-26T07:08:08;1.60;;;0.80;;
16839;SDS011;8536;52.150;11.572;2023-02-26T07:10:35;2.63;;;0.80;;
16839;SDS011;8536;52.150;11.572;2023-02-26T07:13:02;2.50;;;0.53;;
16839;SDS011;8536;52.150;11.572;2023-02-26T07:15:28;0.80;;;0.60;;
16839;SDS011;8536;52.150;11.572;2023-02-26T07:17:55;4.20;;;0.63;;
16839;SDS011;8536;52.150;11.572;2023-02-26T07:20:22;1.00;;;0.70;;
16839;SDS011;8536;52.150;11.572;2023-02-26T07:22:48;1.47;;;0.50;;
16839;SDS011;8536;52.150;11.572;2023-02-26T07:25:15;2.57;;;0.73;;
16839;SDS011;8536;52.150;11.572;2023-02-26T07:27:41;1.30;;;0.50;;
16839;SDS011;8536;52.150;11.572;2023-02-26T07:30:09;4.13;;;0.80;;
16839;SDS011;8536;52.150;11.572;2023-02-26T07:32:36;1.63;;;0.67;;
16839;SDS011;8536;52.150;11.572;2023-02-26T07:35:04;3.30;;;0.80;;
16839;SDS011;8536;52.150;11.572;2023-02-26T07:37:31;1.87;;;0.70;;
16839;SDS011;8536;52.150;11.572;2023-02-26T07:39:57;1.33;;;0.60;;
16839;SDS011;8536;52.150;11.572;2023-02-26T07:42:24;1.83;;;0.50;;
16839;SDS011;8536;52.150;11.572;2023-02-26T07:44:50;2.47;;;0.80;;
16839;SDS011;8536;52.150;11.572;2023-02-26T07:47:17;1.53;;;0.80;;
16839;SDS011;8536;52.150;11.572;2023-02-26T07:49:43;2.90;;;0.80;;
16839;SDS011;8536;52.150;11.572;2023-02-26T07:52:09;1.13;;;0.70;;
16839;SDS011;8536;52.150;11.572;2023-02-26T07:54:36;1.90;;;0.60;;
16839;SDS011;8536;52.150;11.572;2023-02-26T07:57:03;2.30;;;0.60;;
16839;SDS011;8536;52.150;11.572;2023-02-26T07:59:29;0.90;;;0.60;;
16839;SDS011;8536;52.150;11.572;2023-02-26T08:01:56;2.00;;;0.73;;
16839;SDS011;8536;52.150;11.572;2023-02-26T08:04:22;1.17;;;1.00;;
16839;SDS011;8536;52.150;11.572;2023-02-26T08:06:49;3.03;;;1.07;;
16839;SDS011;8536;52.150;11.572;2023-02-26T08:09:16;2.93;;;0.73;;
16839;SDS011;8536;52.150;11.572;2023-02-26T08:11:42;1.03;;;0.70;;
16839;SDS011;8536;52.150;11.572;2023-02-26T08:14:09;1.30;;;0.60;;
16839;SDS011;8536;52.150;11.572;2023-02-26T08:16:36;2.03;;;0.80;;
16839;SDS011;8536;52.150;11.572;2023-02-26T08:19:02;1.47;;;0.50;;
16839;SDS011;8536;52.150;11.572;2023-02-26T08:21:29;1.60;;;0.70;;
16839;SDS011;8536;52.150;11.572;2023-02-26T08:23:55;0.70;;;0.50;;
16839;SDS011;8536;52.150;11.572;2023-02-26T08:26:22;2.10;;;0.63;;
16839;SDS011;8536;52.150;11.572;2023-02-26T08:28:49;5.00;;;0.70;;
16839;SDS011;8536;52.150;11.572;2023-02-26T08:31:16;0.53;;;0.53;;
16839;SDS011;8536;52.150;11.572;2023-02-26T08:33:43;1.77;;;0.67;;
16839;SDS011;8536;52.150;11.572;2023-02-26T08:36:09;1.10;;;0.53;;
16839;SDS011;8536;52.150;11.572;2023-02-26T08:38:36;1.77;;;0.60;;
16839;SDS011;8536;52.150;11.572;2023-02-26T08:41:03;1.13;;;0.70;;
16839;SDS011;8536;52.150;11.572;2023-02-26T08:43:29;1.63;;;0.73;;
16839;SDS011;8536;52.150;11.572;2023-02-26T08:45:56;1.40;;;0.60;;
16839;SDS011;8536;52.150;11.572;2023-02-26T08:48:23;2.33;;;0.70;;
16839;SDS011;8536;52.150;11.572;2023-02-26T08:50:49;3.13;;;0.90;;
16839;SDS011;8536;52.150;11.572;2023-02-26T08:53:16;1.97;;;1.07;;
16839;SDS011;8536;52.150;11.572;2023-02-26T08:55:42;1.63;;;0.50;;
16839;SDS011;8536;52.150;11.572;2023-02-26T08:58:13;2.50;;;0.60;;
16839;SDS011;8536;52.150;11.572;2023-02-26T09:00:39;2.60;;;0.80;;
16839;SDS011;8536;52.150;11.572;2023-02-26T09:03:06;2.63;;;0.90;;
16839;SDS011;8536;52.150;11.572;2023-02-26T09:05:32;1.30;;;0.80;;
16839;SDS011;8536;52.150;11.572;2023-02-26T09:07:59;2.93;;;0.77;;
16839;SDS011;8536;52.150;11.572;2023-02-26T09:10:25;1.70;;;0.77;;
16839;SDS011;8536;52.150;11.572;2023-02-26T09:12:52;1.43;;;0.80;;
16839;SDS011;8536;52.150;11.572;2023-02-26T09:15:19;2.53;;;0.80;;
16839;SDS011;8536;52.150;11.572;2023-02-26T09:17:45;1.80;;;0.33;;
16839;SDS011;8536;52.150;11.572;2023-02-26T09:20:13;3.13;;;0.63;;
16839;SDS011;8536;52.150;11.572;2023-02-26T09:22:40;1.07;;;0.50;;
16839;SDS011;8536;52.150;11.572;2023-02-26T09:25:08;2.13;;;0.90;;
16839;SDS011;8536;52.150;11.572;2023-02-26T09:27:35;1.43;;;0.70;;
16839;SDS011;8536;52.150;11.572;2023-02-26T09:30:02;0.77;;;0.57;;
16839;SDS011;8536;52.150;11.572;2023-02-26T09:32:29;1.77;;;0.60;;
16839;SDS011;8536;52.150;11.572;2023-02-26T09:34:56;2.63;;;0.90;;
16839;SDS011;8536;52.150;11.572;2023-02-26T09:37:23;1.87;;;0.83;;
16839;SDS011;8536;52.150;11.572;2023-02-26T09:39:49;0.63;;;0.43;;
16839;SDS011;8536;52.150;11.572;2023-02-26T09:42:39;1.77;;;0.53;;
16839;SDS011;8536;52.150;11.572;2023-02-26T09:45:12;2.73;;;0.73;;
16839;SDS011;8536;52.150;11.572;2023-02-26T09:47:46;1.50;;;0.57;;
16839;SDS011;8536;52.150;11.572;2023-02-26T09:50:17;5.03;;;0.73;;
16839;SDS011;8536;52.150;11.572;2023-02-26T09:55:54;1.27;;;0.63;;
16839;SDS011;8536;52.150;11.572;2023-02-26T10:01:01;2.37;;;0.87;;
16839;SDS011;8536;52.150;11.572;2023-02-26T10:12:19;1.13;;;0.40;;
16839;SDS011;8536;52.150;11.572;2023-02-26T10:15:02;2.87;;;0.50;;
16839;SDS011;8536;52.150;11.572;2023-02-26T10:17:33;1.60;;;0.77;;
16839;SDS011;8536;52.150;11.572;2023-02-26T10:20:10;1.00;;;0.50;;
16839;SDS011;8536;52.150;11.572;2023-02-26T10:25:23;2.73;;;0.80;;
16839;SDS011;8536;52.150;11.572;2023-02-26T10:30:49;1.17;;;0.83;;
16839;SDS011;8536;52.150;11.572;2023-02-26T10:33:35;1.27;;;0.53;;
16839;SDS011;8536;52.150;11.572;2023-02-26T10:36:18;0.57;;;0.50;;
16839;SDS011;8536;52.150;11.572;2023-02-26T10:38:51;3.67;;;0.50;;
16839;SDS011;8536;52.150;11.572;2023-02-26T10:41:21;1.37;;;0.50;;
16839;SDS011;8536;52.150;11.572;2023-02-26T10:43:54;2.10;;;0.70;;
16839;SDS011;8536;52.150;11.572;2023-02-26T10:46:36;1.13;;;0.60;;
16839;SDS011;8536;52.150;11.572;2023-02-26T10:52:42;2.10;;;0.87;;
16839;SDS011;8536;52.150;11.572;2023-02-26T10:55:04;2.27;;;0.60;;
16839;SDS011;8536;52.150;11.572;2023-02-26T10:57:45;1.87;;;0.80;;
16839;SDS011;8536;52.150;11.572;2023-02-26T11:00:18;1.23;;;0.50;;
16839;SDS011;8536;52.150;11.572;2023-02-26T11:02:46;2.70;;;0.97;;
16839;SDS011;8536;52.150;11.572;2023-02-26T11:05:22;2.77;;;0.93;;
16839;SDS011;8536;52.150;11.572;2023-02-26T11:07:54;1.10;;;0.70;;
16839;SDS011;8536;52.150;11.572;2023-02-26T11:10:23;2.23;;;0.93;;
16839;SDS011;8536;52.150;11.572;2023-02-26T11:12:51;1.47;;;0.80;;
16839;SDS011;8536;52.150;11.572;2023-02-26T11:15:20;2.63;;;1.00;;
16839;SDS011;8536;52.150;11.572;2023-02-26T11:17:47;2.30;;;0.60;;
16839;SDS011;8536;52.150;11.572;2023-02-26T11:20:35;1.60;;;0.70;;
16839;SDS011;8536;52.150;11.572;2023-02-26T11:23:05;2.13;;;0.80;;
16839;SDS011;8536;52.150;11.572;2023-02-26T11:25:35;2.43;;;0.93;;
16839;SDS011;8536;52.150;11.572;2023-02-26T11:30:32;2.20;;;0.77;;
16839;SDS011;8536;52.150;11.572;2023-02-26T11:33:19;3.97;;;0.73;;
16839;SDS011;8536;52.150;11.572;2023-02-26T11:35:48;1.87;;;0.57;;
16839;SDS011;8536;52.150;11.572;2023-02-26T11:38:17;0.60;;;0.40;;
16839;SDS011;8536;52.150;11.572;2023-02-26T11:40:46;0.57;;;0.40;;
16839;SDS011;8536;52.150;11.572;2023-02-26T11:43:15;1.33;;;0.50;;
16839;SDS011;8536;52.150;11.572;2023-02-26T11:45:44;0.97;;;0.37;;
16839;SDS011;8536;52.150;11.572;2023-02-26T11:48:23;1.97;;;0.60;;
16839;SDS011;8536;52.150;11.572;2023-02-26T11:50:54;1.30;;;0.60;;
16839;SDS011;8536;52.150;11.572;2023-02-26T11:53:24;0.73;;;0.57;;
16839;SDS011;8536;52.150;11.572;2023-02-26T11:56:00;1.43;;;0.60;;
16839;SDS011;8536;52.150;11.572;2023-02-26T11:58:35;0.90;;;0.47;;
16839;SDS011;8536;52.150;11.572;2023-02-26T12:01:03;1.60;;;0.73;;
16839;SDS011;8536;52.150;11.572;2023-02-26T12:03:33;0.63;;;0.33;;
16839;SDS011;8536;52.150;11.572;2023-02-26T12:06:05;1.13;;;0.53;;
16839;SDS011;8536;52.150;11.572;2023-02-26T12:08:34;1.03;;;0.30;;
16839;SDS011;8536;52.150;11.572;2023-02-26T12:17:01;1.27;;;0.53;;
16839;SDS011;8536;52.150;11.572;2023-02-26T12:22:41;1.57;;;0.80;;
16839;SDS011;8536;52.150;11.572;2023-02-26T12:28:07;1.13;;;0.50;;
16839;SDS011;8536;52.150;11.572;2023-02-26T12:33:46;1.77;;;0.70;;
16839;SDS011;8536;52.150;11.572;2023-02-26T12:47:49;1.13;;;0.67;;
16839;SDS011;8536;52.150;11.572;2023-02-26T12:56:36;1.27;;;0.60;;
16839;SDS011;8536;52.150;11.572;2023-02-26T13:04:43;1.27;;;0.53;;
16839;SDS011;8536;52.150;11.572;2023-02-26T13:07:33;0.97;;;0.50;;
16839;SDS011;8536;52.150;11.572;2023-02-26T13:18:20;0.70;;;0.57;;
16839;SDS011;8536;52.150;11.572;2023-02-26T13:20:57;0.50;;;0.40;;
16839;SDS011;8536;52.150;11.572;2023-02-26T13:23:44;3.50;;;0.40;;
16839;SDS011;8536;52.150;11.572;2023-02-26T13:26:15;0.60;;;0.33;;
16839;SDS011;8536;52.150;11.572;2023-02-26T13:28:47;1.33;;;0.20;;
16839;SDS011;8536;52.150;11.572;2023-02-26T13:31:24;1.23;;;0.60;;
16839;SDS011;8536;52.150;11.572;2023-02-26T13:33:54;1.40;;;0.50;;
16839;SDS011;8536;52.150;11.572;2023-02-26T13:36:21;0.43;;;0.43;;
16839;SDS011;8536;52.150;11.572;2023-02-26T13:38:56;1.43;;;0.70;;
16839;SDS011;8536;52.150;11.572;2023-02-26T13:41:39;0.80;;;0.40;;
16839;SDS011;8536;52.150;11.572;2023-02-26T13:49:54;2.47;;;0.33;;
16839;SDS011;8536;52.150;11.572;2023-02-26T13:52:28;0.50;;;0.50;;
16839;SDS011;8536;52.150;11.572;2023-02-26T13:54:56;0.80;;;0.40;;
16839;SDS011;8536;52.150;11.572;2023-02-26T14:00:34;0.90;;;0.50;;
16839;SDS011;8536;52.150;11.572;2023-02-26T14:03:11;0.60;;;0.50;;
16839;SDS011;8536;52.150;11.572;2023-02-26T14:08:08;0.53;;;0.40;;
16839;SDS011;8536;52.150;11.572;2023-02-26T14:10:45;1.17;;;0.30;;
16839;SDS011;8536;52.150;11.572;2023-02-26T14:18:52;1.70;;;0.60;;
16839;SDS011;8536;52.150;11.572;2023-02-26T14:23:59;1.13;;;0.50;;
16839;SDS011;8536;52.150;11.572;2023-02-26T14:26:41;1.47;;;0.60;;
16839;SDS011;8536;52.150;11.572;2023-02-26T14:29:21;1.17;;;0.50;;
16839;SDS011;8536;52.150;11.572;2023-02-26T14:34:33;0.57;;;0.43;;
16839;SDS011;8536;52.150;11.572;2023-02-26T14:37:03;0.70;;;0.37;;
16839;SDS011;8536;52.150;11.572;2023-02-26T14:42:10;1.13;;;0.50;;
16839;SDS011;8536;52.150;11.572;2023-02-26T14:44:42;1.10;;;0.77;;
16839;SDS011;8536;52.150;11.572;2023-02-26T14:47:11;0.73;;;0.40;;
16839;SDS011;8536;52.150;11.572;2023-02-26T14:49:39;0.93;;;0.50;;
16839;SDS011;8536;52.150;11.572;2023-02-26T14:55:00;2.27;;;1.10;;
16839;SDS011;8536;52.150;11.572;2023-02-26T15:00:29;0.97;;;0.50;;
16839;SDS011;8536;52.150;11.572;2023-02-26T15:03:10;0.50;;;0.50;;
16839;SDS011;8536;52.150;11.572;2023-02-26T15:05:48;2.00;;;0.67;;
16839;SDS011;8536;52.150;11.572;2023-02-26T15:25:54;1.30;;;0.70;;
16839;SDS011;8536;52.150;11.572;2023-02-26T15:28:29;1.70;;;0.77;;
16839;SDS011;8536;52.150;11.572;2023-02-26T15:30:58;2.20;;;0.70;;
16839;SDS011;8536;52.150;11.572;2023-02-26T15:33:26;1.10;;;0.60;;
16839;SDS011;8536;52.150;11.572;2023-02-26T15:36:00;1.47;;;0.70;;
16839;SDS011;8536;52.150;11.572;2023-02-26T15:39:16;1.47;;;0.53;;
16839;SDS011;8536;52.150;11.572;2023-02-26T15:42:37;1.77;;;0.70;;
16839;SDS011;8536;52.150;11.572;2023-02-26T15:45:40;1.77;;;0.47;;
16839;SDS011;8536;52.150;11.572;2023-02-26T15:48:25;2.07;;;0.70;;
16839;SDS011;8536;52.150;11.572;2023-02-26T15:51:31;2.03;;;0.83;;
16839;SDS011;8536;52.150;11.572;2023-02-26T15:53:58;3.07;;;0.90;;
16839;SDS011;8536;52.150;11.572;2023-02-26T15:56:29;2.43;;;1.20;;
16839;SDS011;8536;52.150;11.572;2023-02-26T15:58:58;1.83;;;1.10;;
16839;SDS011;8536;52.150;11.572;2023-02-26T16:01:32;2.30;;;1.47;;
16839;SDS011;8536;52.150;11.572;2023-02-26T16:04:00;2.33;;;1.30;;
16839;SDS011;8536;52.150;11.572;2023-02-26T16:06:33;1.90;;;1.07;;
16839;SDS011;8536;52.150;11.572;2023-02-26T16:09:01;2.00;;;0.80;;
16839;SDS011;8536;52.150;11.572;2023-02-26T16:11:31;2.27;;;1.03;;
16839;SDS011;8536;52.150;11.572;2023-02-26T16:14:00;1.47;;;0.70;;
16839;SDS011;8536;52.150;11.572;2023-02-26T16:16:35;3.20;;;1.00;;
16839;SDS011;8536;52.150;11.572;2023-02-26T16:19:12;0.80;;;0.67;;
16839;SDS011;8536;52.150;11.572;2023-02-26T16:21:41;2.57;;;0.90;;
16839;SDS011;8536;52.150;11.572;2023-02-26T16:24:11;1.30;;;1.00;;
16839;SDS011;8536;52.150;11.572;2023-02-26T16:26:42;3.87;;;1.60;;
16839;SDS011;8536;52.150;11.572;2023-02-26T16:29:16;3.80;;;1.57;;
16839;SDS011;8536;52.150;11.572;2023-02-26T16:31:45;3.00;;;1.10;;
16839;SDS011;8536;52.150;11.572;2023-02-26T16:37:36;2.50;;;1.30;;
16839;SDS011;8536;52.150;11.572;2023-02-26T16:40:03;1.77;;;0.70;;
16839;SDS011;8536;52.150;11.572;2023-02-26T16:42:51;1.40;;;1.00;;
16839;SDS011;8536;52.150;11.572;2023-02-26T16:48:06;2.57;;;1.30;;
16839;SDS011;8536;52.150;11.572;2023-02-26T16:50:38;4.07;;;1.90;;
16839;SDS011;8536;52.150;11.572;2023-02-26T16:53:12;2.13;;;1.43;;
16839;SDS011;8536;52.150;11.572;2023-02-26T16:55:41;3.10;;;1.97;;
16839;SDS011;8536;52.150;11.572;2023-02-26T16:58:11;2.60;;;1.47;;
16839;SDS011;8536;52.150;11.572;2023-02-26T17:00:39;2.70;;;1.47;;
16839;SDS011;8536;52.150;11.572;2023-02-26T17:03:10;2.87;;;1.00;;
16839;SDS011;8536;52.150;11.572;2023-02-26T17:05:52;1.47;;;1.20;;
16839;SDS011;8536;52.150;11.572;2023-02-26T17:08:21;1.63;;;1.43;;
16839;SDS011;8536;52.150;11.572;2023-02-26T17:10:53;3.60;;;2.23;;
16839;SDS011;8536;52.150;11.572;2023-02-26T17:13:27;2.87;;;2.20;;
16839;SDS011;8536;52.150;11.572;2023-02-26T17:15:57;3.53;;;2.80;;
16839;SDS011;8536;52.150;11.572;2023-02-26T17:18:24;4.37;;;3.23;;
16839;SDS011;8536;52.150;11.572;2023-02-26T17:20:51;4.07;;;2.60;;
16839;SDS011;8536;52.150;11.572;2023-02-26T17:23:18;6.17;;;4.37;;
16839;SDS011;8536;52.150;11.572;2023-02-26T17:25:48;4.87;;;2.13;;
16839;SDS011;8536;52.150;11.572;2023-02-26T17:28:20;5.33;;;2.77;;
16839;SDS011;8536;52.150;11.572;2023-02-26T17:30:52;5.90;;;2.87;;
16839;SDS011;8536;52.150;11.572;2023-02-26T17:33:19;5.67;;;3.17;;
16839;SDS011;8536;52.150;11.572;2023-02-26T17:35:46;6.07;;;2.70;;
16839;SDS011;8536;52.150;11.572;2023-02-26T17:38:13;6.07;;;2.70;;
16839;SDS011;8536;52.150;11.572;2023-02-26T17:40:42;5.33;;;2.83;;
16839;SDS011;8536;52.150;11.572;2023-02-26T17:43:10;6.43;;;2.50;;
16839;SDS011;8536;52.150;11.572;2023-02-26T17:45:37;6.30;;;2.67;;
16839;SDS011;8536;52.150;11.572;2023-02-26T17:48:05;4.30;;;2.93;;
16839;SDS011;8536;52.150;11.572;2023-02-26T17:50:34;3.83;;;2.00;;
16839;SDS011;8536;52.150;11.572;2023-02-26T17:53:06;2.70;;;1.50;;
16839;SDS011;8536;52.150;11.572;2023-02-26T17:55:33;2.83;;;1.70;;
16839;SDS011;8536;52.150;11.572;2023-02-26T17:58:00;2.90;;;1.90;;